KBUR/BUR METAR and TAF weather

Enter ICAO airport designator
Station Type Date Time Source
KBUR METAR 2019/02/23 02:53 UTC NOAA

KBUR 230253Z 29003KT 10SM CLR 11/M04 A3009 RMK AO2 SLP186 T01111039 53029 $


Station Type Date Time Source
KBUR Decoded METAR 2019/02/23 02:53 UTC NOAA

BURBANK-GLENDALE-PASADENA, CA, United States (KBUR) 34-12N 118-22W 217M
Feb 22, 2019 - 09:53 PM EST / 2019.02.23 0253 UTC
Wind: from the WNW (290 degrees) at 3 MPH (3 KT):0
Visibility: 10 mile(s):0
Sky conditions: clear
Temperature: 52.0 F (11.1 C)
Dew Point: 25.0 F (-3.9 C)
Relative Humidity: 34%
Pressure (altimeter): 30.09 in. Hg (1018 hPa)
Pressure tendency: 0.09 inches (2.9 hPa) higher than three hours ago
ob: KBUR 230253Z 29003KT 10SM CLR 11/M04 A3009 RMK AO2 SLP186 T01111039 53029
cycle: 3

Station Type Date Time Source
KBUR TAF 2019/02/22 21:24 UTC NOAA

TAF
AMD KBUR 222121Z 2221/2318 34009KT P6SM SKC
FM230000 18008KT P6SM SKC
FM230300 VRB03KT P6SM SKC


Example: see airport list